createdAt,value
2022-08-08T00:01:00.382Z,40.89
2022-08-08T00:03:33.336Z,41.05
2022-08-08T00:06:03.259Z,40.70
2022-08-08T00:08:30.719Z,40.36
2022-08-08T00:10:57.263Z,39.83
2022-08-08T00:14:15.000Z,39.93
2022-08-08T00:16:10.774Z,42.04
2022-08-08T00:18:37.495Z,41.88
2022-08-08T00:21:06.141Z,41.86
2022-08-08T00:23:43.483Z,41.00
2022-08-08T00:26:14.387Z,39.52
2022-08-08T00:28:48.484Z,39.61
2022-08-08T00:32:20.780Z,39.23
2022-08-08T00:34:18.118Z,40.60
2022-08-08T00:36:45.554Z,41.04
2022-08-08T00:41:06.971Z,40.74
2022-08-08T00:42:08.905Z,40.31
2022-08-08T00:44:40.439Z,40.39
2022-08-08T00:47:14.141Z,40.22
2022-08-08T00:49:58.518Z,40.78
2022-08-08T00:52:29.063Z,40.95
2022-08-08T00:55:05.307Z,43.28
2022-08-08T00:57:35.871Z,41.92
2022-08-08T01:00:05.079Z,43.30
2022-08-08T01:02:34.607Z,42.10
2022-08-08T01:05:28.980Z,41.37
2022-08-08T01:08:06.248Z,40.75
2022-08-08T01:10:33.522Z,40.95
2022-08-08T01:13:00.032Z,40.51
2022-08-08T01:15:43.547Z,39.58
2022-08-08T01:18:16.373Z,39.62
2022-08-08T01:20:52.214Z,40.10
2022-08-08T01:24:05.769Z,39.86
2022-08-08T01:26:05.970Z,40.04
2022-08-08T01:28:38.461Z,40.07
2022-08-08T01:31:05.952Z,40.28
2022-08-08T01:33:53.858Z,39.56
2022-08-08T01:36:23.526Z,38.86
2022-08-08T01:38:49.993Z,39.52
2022-08-08T01:41:19.770Z,42.43
2022-08-08T01:43:46.350Z,41.02
2022-08-08T01:46:12.911Z,39.85
2022-08-08T01:48:39.897Z,39.23
2022-08-08T01:51:31.882Z,39.23
2022-08-08T01:55:16.810Z,39.40
2022-08-08T01:56:46.844Z,39.53
2022-08-08T01:59:13.623Z,39.03
2022-08-08T02:02:00.514Z,38.37
2022-08-08T02:04:29.167Z,39.93
2022-08-08T02:06:55.676Z,39.91
2022-08-08T02:10:02.772Z,39.25
2022-08-08T02:12:09.243Z,39.27
2022-08-08T02:14:49.757Z,39.85
2022-08-08T02:17:22.770Z,39.56
2022-08-08T02:20:07.764Z,40.07
2022-08-08T02:22:52.349Z,40.93
2022-08-08T02:25:21.174Z,40.16
2022-08-08T02:27:49.895Z,41.33
2022-08-08T02:30:21.725Z,41.46
2022-08-08T02:32:52.280Z,42.03
2022-08-08T02:35:19.272Z,42.66
2022-08-08T02:37:52.692Z,41.63
2022-08-08T02:40:23.461Z,41.55
2022-08-08T02:44:35.676Z,41.07
2022-08-08T02:45:51.358Z,40.31
2022-08-08T02:48:18.403Z,40.32
2022-08-08T02:50:56.074Z,40.04
2022-08-08T02:53:24.093Z,41.08
2022-08-08T02:55:57.697Z,40.60
2022-08-08T02:58:26.868Z,40.65
2022-08-08T03:00:57.840Z,40.69
2022-08-08T03:05:00.449Z,41.16
2022-08-08T03:06:10.850Z,40.84
2022-08-08T03:08:52.071Z,40.06
2022-08-08T03:11:47.487Z,40.65
2022-08-08T03:16:01.433Z,40.03
2022-08-08T03:16:52.088Z,40.03
2022-08-08T03:19:21.223Z,41.30
2022-08-08T03:21:58.421Z,42.16
2022-08-08T03:24:26.589Z,43.81
2022-08-08T03:26:55.237Z,45.16
2022-08-08T03:29:51.295Z,43.88
2022-08-08T03:32:08.982Z,42.51
2022-08-08T03:34:35.399Z,43.16
2022-08-08T03:37:10.675Z,42.15
2022-08-08T03:39:51.629Z,42.21
2022-08-08T03:42:30.406Z,41.93
2022-08-08T03:44:57.520Z,41.67
2022-08-08T03:47:25.287Z,41.24
2022-08-08T03:50:06.284Z,40.29
2022-08-08T03:52:44.415Z,39.64
2022-08-08T03:55:56.313Z,39.82
2022-08-08T03:58:34.698Z,39.49
2022-08-08T04:01:01.687Z,39.80
2022-08-08T04:03:58.275Z,39.51
2022-08-08T04:06:15.811Z,40.06
2022-08-08T04:08:46.073Z,40.21
2022-08-08T04:11:17.662Z,40.03
2022-08-08T04:14:33.000Z,40.70
2022-08-08T04:16:40.704Z,40.39
2022-08-08T04:19:23.832Z,40.61
2022-08-08T04:21:51.758Z,40.65
2022-08-08T04:24:19.547Z,41.95
2022-08-08T04:26:57.114Z,43.71
2022-08-08T04:29:24.807Z,42.33
2022-08-08T04:31:58.717Z,41.17
2022-08-08T04:34:26.861Z,43.10
2022-08-08T04:36:58.582Z,42.51
2022-08-08T04:40:03.958Z,41.82
2022-08-08T04:42:15.991Z,41.39
2022-08-08T04:44:43.545Z,41.15
2022-08-08T04:47:14.684Z,40.38
2022-08-08T04:50:00.885Z,39.50
2022-08-08T04:52:33.882Z,39.33
2022-08-08T04:55:00.675Z,38.88
2022-08-08T04:57:28.110Z,38.85
2022-08-08T04:59:57.920Z,39.14
2022-08-08T05:02:30.629Z,39.87
2022-08-08T05:05:00.692Z,38.97
2022-08-08T05:07:38.017Z,38.00
2022-08-08T05:10:12.510Z,37.60
2022-08-08T05:12:53.666Z,39.12
2022-08-08T05:16:47.898Z,39.04
2022-08-08T05:18:13.076Z,39.77
2022-08-08T05:20:48.477Z,40.54
2022-08-08T05:23:18.551Z,40.47
2022-08-08T05:25:46.725Z,40.97
2022-08-08T05:28:13.358Z,39.75
2022-08-08T05:30:41.463Z,39.81
2022-08-08T05:33:13.901Z,41.42
2022-08-08T05:35:43.354Z,41.70
2022-08-08T05:38:30.421Z,44.21
2022-08-08T05:40:58.276Z,41.11
2022-08-08T05:44:02.788Z,41.28
2022-08-08T05:46:12.055Z,40.61
2022-08-08T05:48:38.408Z,39.61
2022-08-08T05:51:13.452Z,39.11
2022-08-08T05:53:56.140Z,38.98
2022-08-08T05:56:28.850Z,38.73
2022-08-08T05:58:58.226Z,38.46
2022-08-08T06:01:51.230Z,39.93
2022-08-08T06:04:23.727Z,39.44
2022-08-08T06:06:50.571Z,40.75
2022-08-08T06:09:59.177Z,39.02
2022-08-08T06:12:03.627Z,40.67
2022-08-08T06:14:30.122Z,39.54
2022-08-08T06:16:57.001Z,39.42
2022-08-08T06:19:25.375Z,40.91
2022-08-08T06:21:57.779Z,40.77
2022-08-08T06:24:31.077Z,39.84
2022-08-08T06:27:02.537Z,40.83
2022-08-08T06:29:56.844Z,41.01
2022-08-08T06:32:15.467Z,38.59
2022-08-08T06:34:43.579Z,38.00
2022-08-08T06:37:25.296Z,39.15
2022-08-08T06:39:56.096Z,39.27
2022-08-08T06:42:23.248Z,38.96
2022-08-08T06:44:49.701Z,40.13
2022-08-08T06:47:16.134Z,39.79
2022-08-08T06:49:56.745Z,40.75
2022-08-08T06:52:23.537Z,40.80
2022-08-08T06:54:54.370Z,39.98
2022-08-08T06:57:20.786Z,39.07
2022-08-08T07:00:10.364Z,38.27
2022-08-08T07:02:33.897Z,37.61
2022-08-08T07:05:02.801Z,38.80
2022-08-08T07:07:32.993Z,39.28
2022-08-08T07:10:03.707Z,41.22
2022-08-08T07:12:34.783Z,39.52
2022-08-08T07:15:01.369Z,38.47
2022-08-08T07:17:40.029Z,37.55
2022-08-08T07:20:17.220Z,41.11
2022-08-08T07:22:43.908Z,39.75
2022-08-08T07:25:14.383Z,38.56
2022-08-08T07:28:00.806Z,38.24
2022-08-08T07:30:31.067Z,38.68
2022-08-08T07:32:59.674Z,38.48
2022-08-08T07:35:27.820Z,37.99
2022-08-08T07:38:04.414Z,39.56
2022-08-08T07:40:36.047Z,40.22
2022-08-08T07:43:09.688Z,40.93
2022-08-08T07:46:04.815Z,41.04
2022-08-08T07:48:23.585Z,41.54
2022-08-08T07:50:50.702Z,40.76
2022-08-08T07:53:52.359Z,39.89
2022-08-08T07:56:03.857Z,39.34
2022-08-08T07:58:30.438Z,37.75
2022-08-08T08:00:58.013Z,38.03
2022-08-08T08:03:28.465Z,37.12
2022-08-08T08:05:55.040Z,37.14
2022-08-08T08:08:25.211Z,38.03
2022-08-08T08:10:53.214Z,37.13
2022-08-08T08:13:25.622Z,36.97
2022-08-08T08:16:08.618Z,37.69
2022-08-08T08:18:39.066Z,37.86
2022-08-08T08:21:18.790Z,37.60
2022-08-08T08:23:51.192Z,36.70
2022-08-08T08:26:18.092Z,37.10
2022-08-08T08:28:54.376Z,38.07
2022-08-08T08:31:21.855Z,38.40
2022-08-08T08:33:50.659Z,39.79
2022-08-08T08:36:21.914Z,39.62
2022-08-08T08:38:53.039Z,38.86
2022-08-08T08:41:20.255Z,38.54
2022-08-08T08:43:50.361Z,38.77
2022-08-08T08:46:19.133Z,40.77
2022-08-08T08:48:49.640Z,40.72
2022-08-08T08:51:16.367Z,40.16
2022-08-08T08:53:58.894Z,40.53
2022-08-08T08:56:27.710Z,40.79
2022-08-08T08:58:54.132Z,40.59
2022-08-08T09:01:20.877Z,41.61
2022-08-08T09:03:50.961Z,43.10
2022-08-08T09:06:26.568Z,43.50
2022-08-08T09:08:55.716Z,43.45
2022-08-08T09:11:22.255Z,42.73
2022-08-08T09:13:49.792Z,42.57
2022-08-08T09:16:20.181Z,42.99
2022-08-08T09:18:55.658Z,43.25
2022-08-08T09:22:01.167Z,43.54
2022-08-08T09:24:08.594Z,45.90
2022-08-08T09:26:40.231Z,44.46
2022-08-08T09:29:13.937Z,44.36
2022-08-08T09:31:56.455Z,46.11
2022-08-08T09:34:34.208Z,49.14
2022-08-08T09:37:37.368Z,48.49
2022-08-08T09:39:48.176Z,47.01
2022-08-08T09:45:08.060Z,47.11
2022-08-08T09:48:09.371Z,47.40
2022-08-08T09:50:34.441Z,48.57
2022-08-08T09:53:23.480Z,47.48
2022-08-08T09:56:04.986Z,47.05
2022-08-08T09:58:41.281Z,46.37
2022-08-08T10:01:15.486Z,47.38
2022-08-08T10:03:57.533Z,48.03
2022-08-08T10:06:29.626Z,48.37
2022-08-08T10:08:56.321Z,47.22
2022-08-08T10:12:26.278Z,46.28
2022-08-08T10:14:27.583Z,45.84
2022-08-08T10:16:58.409Z,44.90
2022-08-08T10:19:25.065Z,48.36
2022-08-08T10:21:53.328Z,47.52
2022-08-08T10:24:28.486Z,48.22
2022-08-08T10:26:59.327Z,48.64
2022-08-08T10:29:31.146Z,48.37
2022-08-08T10:32:10.642Z,46.50
2022-08-08T10:34:39.443Z,45.72
2022-08-08T10:37:06.340Z,45.77
2022-08-08T10:39:53.378Z,45.82
2022-08-08T10:42:21.633Z,46.03
2022-08-08T10:44:53.849Z,45.79
2022-08-08T10:47:21.695Z,46.85
2022-08-08T10:50:01.337Z,49.46
2022-08-08T10:52:30.665Z,49.37
2022-08-08T10:54:57.557Z,48.98
2022-08-08T10:57:41.406Z,48.06
2022-08-08T11:00:11.146Z,47.86
2022-08-08T11:02:38.639Z,48.39
2022-08-08T11:05:14.696Z,49.68
2022-08-08T11:08:37.756Z,50.03
2022-08-08T11:10:29.215Z,52.07
2022-08-08T11:13:18.645Z,52.36
2022-08-08T11:15:52.399Z,50.87
2022-08-08T11:18:27.827Z,51.46
2022-08-08T11:20:57.663Z,51.50
2022-08-08T11:23:25.208Z,51.91
2022-08-08T11:25:58.597Z,51.04
2022-08-08T11:28:25.787Z,51.07
2022-08-08T11:30:52.829Z,55.67
2022-08-08T11:33:19.768Z,52.15
2022-08-08T11:35:46.242Z,51.38
2022-08-08T11:38:36.587Z,49.88
2022-08-08T11:41:01.616Z,49.30
2022-08-08T11:43:39.467Z,49.08
2022-08-08T11:46:17.314Z,50.34
2022-08-08T11:48:47.164Z,50.35
2022-08-08T11:51:38.165Z,49.96
2022-08-08T11:54:02.056Z,49.11
2022-08-08T11:56:29.214Z,50.45
2022-08-08T11:58:55.983Z,49.33
2022-08-08T12:01:22.686Z,49.57
2022-08-08T12:03:49.820Z,48.89
2022-08-08T12:06:17.357Z,49.95
2022-08-08T12:08:44.116Z,49.27
2022-08-08T12:11:12.475Z,48.02
2022-08-08T12:14:03.977Z,47.27
2022-08-08T12:16:30.190Z,46.96
2022-08-08T12:19:02.153Z,46.80
2022-08-08T12:22:00.422Z,47.26
2022-08-08T12:24:18.912Z,46.36
2022-08-08T12:26:47.421Z,46.80
2022-08-08T12:29:16.554Z,46.68
2022-08-08T12:31:53.536Z,46.94
2022-08-08T12:34:20.867Z,46.59
2022-08-08T12:36:59.775Z,46.34
2022-08-08T12:39:56.464Z,46.24
2022-08-08T12:42:33.065Z,46.46
2022-08-08T12:45:00.725Z,46.67
2022-08-08T12:47:58.001Z,46.80
2022-08-08T12:50:15.025Z,46.00
2022-08-08T12:52:41.736Z,46.09
2022-08-08T12:55:09.432Z,46.02
2022-08-08T12:57:49.853Z,45.45
2022-08-08T13:00:23.362Z,46.17
2022-08-08T13:03:00.988Z,46.37
2022-08-08T13:06:03.144Z,46.00
2022-08-08T13:08:15.784Z,46.41
2022-08-08T13:10:55.674Z,46.12
2022-08-08T13:13:24.038Z,45.76
2022-08-08T13:15:54.755Z,46.10
2022-08-08T13:18:22.175Z,45.78
2022-08-08T13:20:54.085Z,45.73
2022-08-08T13:23:30.609Z,45.95
2022-08-08T13:26:04.303Z,46.04
2022-08-08T13:28:42.290Z,46.62
2022-08-08T13:31:09.397Z,45.92
2022-08-08T13:33:42.845Z,45.85
2022-08-08T13:36:10.056Z,45.77
2022-08-08T13:38:36.641Z,45.24
2022-08-08T13:41:03.631Z,45.40
2022-08-08T13:43:31.164Z,44.85
2022-08-08T13:45:57.888Z,45.01
2022-08-08T13:48:28.761Z,44.76
2022-08-08T13:51:24.569Z,44.67
2022-08-08T13:53:53.298Z,44.50
2022-08-08T13:56:27.307Z,44.49
2022-08-08T13:58:56.025Z,44.55
2022-08-08T14:01:32.761Z,44.57
2022-08-08T14:04:11.204Z,44.76
2022-08-08T14:06:44.592Z,44.23
2022-08-08T14:09:24.814Z,44.45
2022-08-08T14:11:56.699Z,43.79
2022-08-08T14:14:26.158Z,44.45
2022-08-08T14:16:55.312Z,44.67
2022-08-08T14:19:54.213Z,44.07
2022-08-08T14:22:08.804Z,44.48
2022-08-08T14:24:36.575Z,44.20
2022-08-08T14:27:07.848Z,43.99
2022-08-08T14:29:39.438Z,43.72
2022-08-08T14:32:11.455Z,44.02
2022-08-08T14:34:43.228Z,43.95
2022-08-08T14:37:10.149Z,44.80
2022-08-08T14:39:47.480Z,44.73
2022-08-08T14:42:21.537Z,44.50
2022-08-08T14:44:53.389Z,44.80
2022-08-08T14:47:21.633Z,44.53
2022-08-08T14:50:06.828Z,44.96
2022-08-08T14:52:34.866Z,44.33
2022-08-08T14:55:01.308Z,43.86
2022-08-08T14:58:02.389Z,45.37
2022-08-08T15:00:14.898Z,46.21
2022-08-08T15:02:58.962Z,45.20
2022-08-08T15:05:42.779Z,46.07
2022-08-08T15:08:21.923Z,45.19
2022-08-08T15:10:49.687Z,44.77
2022-08-08T15:13:16.418Z,43.75
2022-08-08T15:16:01.218Z,43.55
2022-08-08T15:18:29.803Z,43.88
2022-08-08T15:20:56.761Z,44.41
2022-08-08T15:23:23.297Z,45.09
2022-08-08T15:25:59.860Z,45.45
2022-08-08T15:28:33.790Z,45.27
2022-08-08T15:31:01.433Z,46.18
2022-08-08T15:33:38.252Z,45.43
2022-08-08T15:36:18.669Z,44.84
2022-08-08T15:38:50.373Z,45.09
2022-08-08T15:41:17.440Z,45.26
2022-08-08T15:44:01.019Z,46.68
2022-08-08T15:46:34.695Z,45.52
2022-08-08T15:49:01.727Z,44.40
2022-08-08T15:51:36.867Z,44.85
2022-08-08T15:54:03.677Z,44.77
2022-08-08T15:56:30.617Z,44.23
2022-08-08T15:58:57.295Z,44.51
2022-08-08T16:01:23.766Z,45.93
2022-08-08T16:04:07.526Z,45.14
2022-08-08T16:06:40.228Z,46.88
2022-08-08T16:13:04.571Z,46.98
2022-08-08T16:13:07.285Z,46.30
2022-08-08T16:14:40.099Z,45.13
2022-08-08T16:17:38.758Z,45.20
2022-08-08T16:20:09.960Z,44.42
2022-08-08T16:22:41.765Z,45.49
2022-08-08T16:25:08.658Z,46.04
2022-08-08T16:27:35.186Z,46.55
2022-08-08T16:30:14.084Z,45.12
2022-08-08T16:32:42.668Z,43.10
2022-08-08T16:35:09.136Z,42.81
2022-08-08T16:37:35.675Z,42.28
2022-08-08T16:40:03.750Z,42.56
2022-08-08T16:42:31.630Z,42.42
2022-08-08T16:45:01.368Z,47.66
2022-08-08T16:47:41.696Z,47.23
2022-08-08T16:50:13.215Z,47.74
2022-08-08T16:55:04.693Z,46.99
2022-08-08T16:55:52.383Z,47.32
2022-08-08T16:58:17.771Z,46.67
2022-08-08T17:00:48.731Z,45.44
2022-08-08T17:03:24.700Z,47.12
2022-08-08T17:06:01.576Z,47.74
2022-08-08T17:08:28.666Z,46.11
2022-08-08T17:10:58.563Z,46.55
2022-08-08T17:13:50.398Z,46.51
2022-08-08T17:16:24.417Z,47.64
2022-08-08T17:18:51.668Z,48.15
2022-08-08T17:21:18.529Z,46.91
2022-08-08T17:23:58.179Z,47.23
2022-08-08T17:26:28.994Z,47.50
2022-08-08T17:28:56.008Z,45.68
2022-08-08T17:31:44.644Z,46.63
2022-08-08T17:34:35.900Z,46.92
2022-08-08T17:37:03.451Z,48.50
2022-08-08T17:40:03.092Z,46.59
2022-08-08T17:42:19.802Z,48.30
2022-08-08T17:44:46.520Z,48.31
2022-08-08T17:47:23.324Z,48.21
2022-08-08T17:49:51.753Z,47.00
2022-08-08T17:52:19.874Z,46.74
2022-08-08T17:54:51.811Z,47.44
2022-08-08T17:57:23.044Z,47.72
2022-08-08T17:59:51.677Z,46.19
2022-08-08T18:02:26.055Z,47.58
2022-08-08T18:05:00.532Z,46.98
2022-08-08T18:08:03.541Z,47.17
2022-08-08T18:10:14.203Z,48.90
2022-08-08T18:12:40.673Z,48.26
2022-08-08T18:15:11.472Z,47.19
2022-08-08T18:18:27.166Z,48.73
2022-08-08T18:20:43.025Z,49.94
2022-08-08T18:23:15.209Z,48.91
2022-08-08T18:25:41.957Z,47.99
2022-08-08T18:28:13.212Z,48.28
2022-08-08T18:30:40.995Z,48.96
2022-08-08T18:33:10.722Z,50.74
2022-08-08T18:35:54.335Z,49.76
2022-08-08T18:38:29.868Z,49.80
2022-08-08T18:40:56.525Z,49.52
2022-08-08T18:43:22.933Z,49.89
2022-08-08T18:46:52.632Z,48.62
2022-08-08T18:48:38.587Z,50.05
2022-08-08T18:51:27.121Z,48.98
2022-08-08T18:54:02.825Z,48.47
2022-08-08T18:56:32.688Z,49.10
2022-08-08T18:59:01.440Z,49.31
2022-08-08T19:02:25.507Z,48.15
2022-08-08T19:04:14.794Z,49.06
2022-08-08T19:06:41.571Z,50.16
2022-08-08T19:09:14.824Z,49.13
2022-08-08T19:11:46.674Z,47.75
2022-08-08T19:14:13.505Z,47.68
2022-08-08T19:16:47.593Z,48.69
2022-08-08T19:19:14.620Z,48.93
2022-08-08T19:21:48.582Z,49.13
2022-08-08T19:24:39.238Z,49.45
2022-08-08T19:27:05.334Z,48.91
2022-08-08T19:29:32.407Z,49.09
2022-08-08T19:32:02.479Z,47.50
2022-08-08T19:34:41.268Z,47.59
2022-08-08T19:37:08.151Z,47.07
2022-08-08T19:39:43.295Z,47.66
2022-08-08T19:42:12.097Z,48.73
2022-08-08T19:44:46.443Z,46.90
2022-08-08T19:47:24.572Z,44.40
2022-08-08T19:49:59.359Z,43.45
2022-08-08T19:52:35.303Z,41.79
2022-08-08T19:55:05.160Z,41.77
2022-08-08T19:57:32.658Z,41.00
2022-08-08T20:00:02.176Z,40.68
2022-08-08T20:02:38.459Z,40.88
2022-08-08T20:05:05.147Z,40.63
2022-08-08T20:08:28.826Z,40.42
2022-08-08T20:10:18.659Z,42.05
2022-08-08T20:14:10.121Z,42.50
2022-08-08T20:15:52.364Z,43.13
2022-08-08T20:18:20.009Z,41.39
2022-08-08T20:20:51.099Z,40.30
2022-08-08T20:23:17.493Z,39.71
2022-08-08T20:25:43.934Z,39.90
2022-08-08T20:28:18.753Z,42.32
2022-08-08T20:30:56.365Z,41.87
2022-08-08T20:35:57.089Z,42.32
2022-08-08T20:38:32.010Z,41.65
2022-08-08T20:40:59.922Z,42.09
2022-08-08T20:43:43.581Z,42.48
2022-08-08T20:46:13.597Z,43.11
2022-08-08T20:48:41.004Z,43.35
2022-08-08T20:51:07.502Z,42.67
2022-08-08T20:53:59.755Z,43.24
2022-08-08T20:56:20.737Z,43.27
2022-08-08T20:59:05.655Z,42.24
2022-08-08T21:01:32.705Z,41.61
2022-08-08T21:04:14.223Z,43.18
2022-08-08T21:06:51.975Z,42.87
2022-08-08T21:09:19.993Z,42.85
2022-08-08T21:11:51.198Z,42.47
2022-08-08T21:14:18.808Z,41.81
2022-08-08T21:17:00.407Z,42.34
2022-08-08T21:19:44.126Z,42.45
2022-08-08T21:22:12.993Z,43.66
2022-08-08T21:24:41.841Z,43.66
2022-08-08T21:28:05.284Z,43.16
2022-08-08T21:30:16.267Z,45.29
2022-08-08T21:32:51.178Z,43.42
2022-08-08T21:36:16.192Z,43.45
2022-08-08T21:40:57.223Z,42.66
2022-08-08T21:43:23.618Z,43.09
2022-08-08T21:48:05.442Z,42.76
2022-08-08T21:48:41.336Z,43.34
2022-08-08T21:51:10.962Z,43.17
2022-08-08T21:54:36.228Z,42.57
2022-08-08T21:56:33.928Z,42.52
2022-08-08T21:59:05.612Z,42.80
2022-08-08T22:01:40.692Z,43.86
2022-08-08T22:04:08.193Z,42.83
2022-08-08T22:06:40.285Z,43.15
2022-08-08T22:09:08.134Z,42.26
2022-08-08T22:11:51.368Z,42.83
2022-08-08T22:14:21.913Z,42.21
2022-08-08T22:16:53.384Z,43.07
2022-08-08T22:19:23.942Z,43.97
2022-08-08T22:21:53.173Z,43.39
2022-08-08T22:24:23.823Z,42.60
2022-08-08T22:27:02.268Z,43.75
2022-08-08T22:29:59.353Z,43.10
2022-08-08T22:32:18.233Z,43.90
2022-08-08T22:34:51.288Z,43.36
2022-08-08T22:37:49.981Z,43.33
2022-08-08T22:40:04.899Z,41.91
2022-08-08T22:42:34.499Z,42.05
2022-08-08T22:45:01.756Z,42.80
2022-08-08T22:47:37.925Z,42.72
2022-08-08T22:50:04.961Z,42.47
2022-08-08T22:52:36.605Z,42.27
2022-08-08T22:55:05.024Z,43.24
2022-08-08T22:57:43.694Z,42.64
2022-08-08T23:00:15.621Z,42.70
2022-08-08T23:02:44.699Z,42.73
2022-08-08T23:05:16.808Z,42.63
2022-08-08T23:07:57.053Z,43.26
2022-08-08T23:10:25.515Z,43.59
2022-08-08T23:12:53.955Z,42.56
2022-08-08T23:16:40.893Z,43.17
2022-08-08T23:18:06.965Z,43.63
2022-08-08T23:20:34.234Z,43.75
2022-08-08T23:23:00.756Z,43.98
2022-08-08T23:25:27.374Z,44.44
2022-08-08T23:27:54.875Z,43.29
2022-08-08T23:30:21.322Z,43.37
2022-08-08T23:32:48.308Z,44.87
2022-08-08T23:35:17.276Z,45.81
2022-08-08T23:37:54.174Z,44.51
2022-08-08T23:40:31.482Z,44.65
2022-08-08T23:42:58.245Z,44.83
2022-08-08T23:49:02.104Z,43.87
2022-08-08T23:49:05.807Z,43.87
2022-08-08T23:51:02.824Z,43.06
2022-08-08T23:54:05.091Z,43.54
2022-08-08T23:56:24.064Z,44.69
2022-08-08T23:59:02.412Z,44.80
